Terminal Aerodrome Forecast
Issued by NWS

Home | Current Version | Previous Version | Text Only | Print | Product List | Glossary On
Versions: 1 2 3 4 5 6 7 8 9 10 11 12 13 14 15 16 17
000
FTUS46 KSEW 260801 AAB
TAFBLI
TAF AMD
KBLI 260801Z 2608/2706 14008KT 6SM -RASN BR BKN008 OVC025
      TEMPO 2610/2614 3SM -SN BR OVC012
     FM261700 02008KT P6SM VCSH BKN030
     FM262200 02010KT P6SM SCT040=

USA.gov is the U.S. government's official web portal to all federal, state and local government web resources and services.